sensor_id;sensor_type;location;lat;lon;timestamp;P1;durP1;ratioP1;P2;durP2;ratioP2
38513;SDS011;24282;48.400;10.808;2023-04-15T00:00:51;4.27;;;3.10;;
38513;SDS011;24282;48.400;10.808;2023-04-15T00:03:17;6.53;;;3.93;;
38513;SDS011;24282;48.400;10.808;2023-04-15T00:05:43;5.97;;;3.50;;
38513;SDS011;24282;48.400;10.808;2023-04-15T00:08:09;5.07;;;3.10;;
38513;SDS011;24282;48.400;10.808;2023-04-15T00:10:34;6.33;;;3.70;;
38513;SDS011;24282;48.400;10.808;2023-04-15T00:13:00;5.80;;;3.17;;
38513;SDS011;24282;48.400;10.808;2023-04-15T00:15:26;8.37;;;4.20;;
38513;SDS011;24282;48.400;10.808;2023-04-15T00:17:52;6.73;;;4.23;;
38513;SDS011;24282;48.400;10.808;2023-04-15T00:20:18;6.70;;;3.50;;
38513;SDS011;24282;48.400;10.808;2023-04-15T00:22:43;7.00;;;4.00;;
38513;SDS011;24282;48.400;10.808;2023-04-15T00:25:10;7.23;;;3.70;;
38513;SDS011;24282;48.400;10.808;2023-04-15T00:27:36;4.50;;;3.20;;
38513;SDS011;24282;48.400;10.808;2023-04-15T00:30:02;5.53;;;3.40;;
38513;SDS011;24282;48.400;10.808;2023-04-15T00:32:29;5.53;;;3.30;;
38513;SDS011;24282;48.400;10.808;2023-04-15T00:34:55;6.40;;;3.93;;
38513;SDS011;24282;48.400;10.808;2023-04-15T00:37:22;4.40;;;3.20;;
38513;SDS011;24282;48.400;10.808;2023-04-15T00:39:48;4.60;;;3.33;;
38513;SDS011;24282;48.400;10.808;2023-04-15T00:42:13;5.33;;;3.33;;
38513;SDS011;24282;48.400;10.808;2023-04-15T00:44:40;5.10;;;3.37;;
38513;SDS011;24282;48.400;10.808;2023-04-15T00:47:06;6.30;;;3.67;;
38513;SDS011;24282;48.400;10.808;2023-04-15T00:49:34;7.03;;;3.47;;
38513;SDS011;24282;48.400;10.808;2023-04-15T00:52:00;5.73;;;3.57;;
38513;SDS011;24282;48.400;10.808;2023-04-15T00:54:26;4.97;;;3.33;;
38513;SDS011;24282;48.400;10.808;2023-04-15T00:56:51;5.67;;;3.50;;
38513;SDS011;24282;48.400;10.808;2023-04-15T00:59:17;5.73;;;3.23;;
38513;SDS011;24282;48.400;10.808;2023-04-15T01:01:44;6.13;;;3.83;;
38513;SDS011;24282;48.400;10.808;2023-04-15T01:04:11;5.70;;;3.47;;
38513;SDS011;24282;48.400;10.808;2023-04-15T01:06:37;7.03;;;3.57;;
38513;SDS011;24282;48.400;10.808;2023-04-15T01:09:03;4.77;;;3.10;;
38513;SDS011;24282;48.400;10.808;2023-04-15T01:11:29;4.80;;;3.47;;
38513;SDS011;24282;48.400;10.808;2023-04-15T01:13:59;6.23;;;3.40;;
38513;SDS011;24282;48.400;10.808;2023-04-15T01:16:25;7.10;;;3.10;;
38513;SDS011;24282;48.400;10.808;2023-04-15T01:18:52;6.40;;;4.03;;
38513;SDS011;24282;48.400;10.808;2023-04-15T01:21:19;4.83;;;3.30;;
38513;SDS011;24282;48.400;10.808;2023-04-15T01:23:46;6.13;;;3.83;;
38513;SDS011;24282;48.400;10.808;2023-04-15T01:26:12;6.37;;;3.80;;
38513;SDS011;24282;48.400;10.808;2023-04-15T01:28:38;7.03;;;3.20;;
38513;SDS011;24282;48.400;10.808;2023-04-15T01:31:08;4.90;;;3.70;;
38513;SDS011;24282;48.400;10.808;2023-04-15T01:33:36;4.87;;;3.60;;
38513;SDS011;24282;48.400;10.808;2023-04-15T01:36:02;4.93;;;3.63;;
38513;SDS011;24282;48.400;10.808;2023-04-15T01:38:29;4.20;;;3.20;;
38513;SDS011;24282;48.400;10.808;2023-04-15T01:40:56;5.43;;;3.40;;
38513;SDS011;24282;48.400;10.808;2023-04-15T01:43:23;7.73;;;3.50;;
38513;SDS011;24282;48.400;10.808;2023-04-15T01:45:50;5.73;;;3.10;;
38513;SDS011;24282;48.400;10.808;2023-04-15T01:48:15;6.33;;;3.10;;
38513;SDS011;24282;48.400;10.808;2023-04-15T01:50:42;4.67;;;3.37;;
38513;SDS011;24282;48.400;10.808;2023-04-15T01:53:08;4.77;;;3.20;;
38513;SDS011;24282;48.400;10.808;2023-04-15T01:55:34;4.17;;;2.97;;
38513;SDS011;24282;48.400;10.808;2023-04-15T01:57:59;5.20;;;3.20;;
38513;SDS011;24282;48.400;10.808;2023-04-15T02:00:25;6.97;;;3.30;;
38513;SDS011;24282;48.400;10.808;2023-04-15T02:02:51;5.10;;;2.93;;
38513;SDS011;24282;48.400;10.808;2023-04-15T02:05:17;3.80;;;2.70;;
38513;SDS011;24282;48.400;10.808;2023-04-15T02:07:46;5.00;;;3.37;;
38513;SDS011;24282;48.400;10.808;2023-04-15T02:10:12;4.97;;;3.10;;
38513;SDS011;24282;48.400;10.808;2023-04-15T02:12:38;4.70;;;3.03;;
38513;SDS011;24282;48.400;10.808;2023-04-15T02:15:04;5.53;;;3.33;;
38513;SDS011;24282;48.400;10.808;2023-04-15T02:17:34;4.93;;;3.17;;
38513;SDS011;24282;48.400;10.808;2023-04-15T02:20:01;5.60;;;3.07;;
38513;SDS011;24282;48.400;10.808;2023-04-15T02:22:30;4.43;;;2.80;;
38513;SDS011;24282;48.400;10.808;2023-04-15T02:24:56;5.57;;;2.80;;
38513;SDS011;24282;48.400;10.808;2023-04-15T02:27:22;4.57;;;3.00;;
38513;SDS011;24282;48.400;10.808;2023-04-15T02:29:48;4.93;;;3.13;;
38513;SDS011;24282;48.400;10.808;2023-04-15T02:32:15;5.93;;;3.37;;
38513;SDS011;24282;48.400;10.808;2023-04-15T02:34:41;4.03;;;2.87;;
38513;SDS011;24282;48.400;10.808;2023-04-15T02:37:09;5.73;;;2.73;;
38513;SDS011;24282;48.400;10.808;2023-04-15T02:39:36;5.50;;;3.27;;
38513;SDS011;24282;48.400;10.808;2023-04-15T02:42:02;4.97;;;2.87;;
38513;SDS011;24282;48.400;10.808;2023-04-15T02:44:29;5.67;;;3.33;;
38513;SDS011;24282;48.400;10.808;2023-04-15T02:46:58;7.77;;;3.07;;
38513;SDS011;24282;48.400;10.808;2023-04-15T02:49:26;5.73;;;2.97;;
38513;SDS011;24282;48.400;10.808;2023-04-15T02:51:54;4.73;;;3.03;;
38513;SDS011;24282;48.400;10.808;2023-04-15T02:54:20;5.17;;;3.10;;
38513;SDS011;24282;48.400;10.808;2023-04-15T02:56:49;6.87;;;3.00;;
38513;SDS011;24282;48.400;10.808;2023-04-15T02:59:19;5.77;;;3.07;;
38513;SDS011;24282;48.400;10.808;2023-04-15T03:01:45;4.93;;;2.97;;
38513;SDS011;24282;48.400;10.808;2023-04-15T03:04:11;4.93;;;3.17;;
38513;SDS011;24282;48.400;10.808;2023-04-15T03:06:37;5.07;;;3.63;;
38513;SDS011;24282;48.400;10.808;2023-04-15T03:09:05;6.87;;;3.67;;
38513;SDS011;24282;48.400;10.808;2023-04-15T03:11:33;6.30;;;3.27;;
38513;SDS011;24282;48.400;10.808;2023-04-15T03:14:05;5.90;;;3.80;;
38513;SDS011;24282;48.400;10.808;2023-04-15T03:16:33;5.73;;;3.23;;
38513;SDS011;24282;48.400;10.808;2023-04-15T03:19:00;5.83;;;3.70;;
38513;SDS011;24282;48.400;10.808;2023-04-15T03:21:25;5.77;;;3.13;;
38513;SDS011;24282;48.400;10.808;2023-04-15T03:23:52;6.63;;;3.80;;
38513;SDS011;24282;48.400;10.808;2023-04-15T03:26:27;4.87;;;3.50;;
38513;SDS011;24282;48.400;10.808;2023-04-15T03:28:57;6.23;;;3.40;;
38513;SDS011;24282;48.400;10.808;2023-04-15T03:31:23;7.97;;;3.80;;
38513;SDS011;24282;48.400;10.808;2023-04-15T03:33:49;8.50;;;3.50;;
38513;SDS011;24282;48.400;10.808;2023-04-15T03:36:14;4.73;;;3.00;;
38513;SDS011;24282;48.400;10.808;2023-04-15T03:38:41;5.70;;;4.00;;
38513;SDS011;24282;48.400;10.808;2023-04-15T03:41:07;6.43;;;3.57;;
38513;SDS011;24282;48.400;10.808;2023-04-15T03:43:33;5.57;;;3.43;;
38513;SDS011;24282;48.400;10.808;2023-04-15T03:45:59;5.10;;;3.30;;
38513;SDS011;24282;48.400;10.808;2023-04-15T03:48:25;5.73;;;3.70;;
38513;SDS011;24282;48.400;10.808;2023-04-15T03:50:51;6.83;;;3.93;;
38513;SDS011;24282;48.400;10.808;2023-04-15T03:53:17;6.57;;;3.63;;
38513;SDS011;24282;48.400;10.808;2023-04-15T03:55:42;4.90;;;3.13;;
38513;SDS011;24282;48.400;10.808;2023-04-15T03:58:08;5.07;;;3.00;;
38513;SDS011;24282;48.400;10.808;2023-04-15T04:00:37;7.10;;;2.90;;
38513;SDS011;24282;48.400;10.808;2023-04-15T04:03:06;5.77;;;3.37;;
38513;SDS011;24282;48.400;10.808;2023-04-15T04:05:32;8.00;;;4.43;;
38513;SDS011;24282;48.400;10.808;2023-04-15T04:08:01;6.67;;;3.80;;
38513;SDS011;24282;48.400;10.808;2023-04-15T04:10:27;6.03;;;4.10;;
38513;SDS011;24282;48.400;10.808;2023-04-15T04:12:52;5.17;;;3.70;;
38513;SDS011;24282;48.400;10.808;2023-04-15T04:15:18;5.43;;;3.57;;
38513;SDS011;24282;48.400;10.808;2023-04-15T04:17:44;5.90;;;3.57;;
38513;SDS011;24282;48.400;10.808;2023-04-15T04:20:09;6.13;;;3.70;;
38513;SDS011;24282;48.400;10.808;2023-04-15T04:22:38;6.60;;;3.83;;
38513;SDS011;24282;48.400;10.808;2023-04-15T04:25:05;5.17;;;3.40;;
38513;SDS011;24282;48.400;10.808;2023-04-15T04:27:32;8.10;;;4.30;;
38513;SDS011;24282;48.400;10.808;2023-04-15T04:29:58;7.83;;;4.60;;
38513;SDS011;24282;48.400;10.808;2023-04-15T04:32:24;9.30;;;4.57;;
38513;SDS011;24282;48.400;10.808;2023-04-15T04:34:50;5.77;;;3.43;;
38513;SDS011;24282;48.400;10.808;2023-04-15T04:37:20;5.30;;;3.80;;
38513;SDS011;24282;48.400;10.808;2023-04-15T04:39:48;6.57;;;3.73;;
38513;SDS011;24282;48.400;10.808;2023-04-15T04:42:13;4.40;;;3.20;;
38513;SDS011;24282;48.400;10.808;2023-04-15T04:44:39;6.47;;;3.30;;
38513;SDS011;24282;48.400;10.808;2023-04-15T04:47:05;4.93;;;3.33;;
38513;SDS011;24282;48.400;10.808;2023-04-15T04:49:31;4.93;;;3.20;;
38513;SDS011;24282;48.400;10.808;2023-04-15T04:51:57;5.07;;;3.47;;
38513;SDS011;24282;48.400;10.808;2023-04-15T04:54:23;7.50;;;3.63;;
38513;SDS011;24282;48.400;10.808;2023-04-15T04:56:49;6.73;;;3.50;;
38513;SDS011;24282;48.400;10.808;2023-04-15T04:59:15;7.50;;;3.43;;
38513;SDS011;24282;48.400;10.808;2023-04-15T05:01:41;6.40;;;3.60;;
38513;SDS011;24282;48.400;10.808;2023-04-15T05:04:07;6.67;;;3.70;;
38513;SDS011;24282;48.400;10.808;2023-04-15T05:06:33;5.67;;;3.50;;
38513;SDS011;24282;48.400;10.808;2023-04-15T05:09:00;7.30;;;3.80;;
38513;SDS011;24282;48.400;10.808;2023-04-15T05:11:27;6.80;;;3.47;;
38513;SDS011;24282;48.400;10.808;2023-04-15T05:13:53;4.90;;;3.17;;
38513;SDS011;24282;48.400;10.808;2023-04-15T05:16:19;7.03;;;3.43;;
38513;SDS011;24282;48.400;10.808;2023-04-15T05:18:45;8.10;;;3.63;;
38513;SDS011;24282;48.400;10.808;2023-04-15T05:21:11;6.83;;;3.57;;
38513;SDS011;24282;48.400;10.808;2023-04-15T05:23:37;5.90;;;3.30;;
38513;SDS011;24282;48.400;10.808;2023-04-15T05:26:03;6.17;;;3.47;;
38513;SDS011;24282;48.400;10.808;2023-04-15T05:28:28;8.40;;;3.57;;
38513;SDS011;24282;48.400;10.808;2023-04-15T05:30:55;5.43;;;3.43;;
38513;SDS011;24282;48.400;10.808;2023-04-15T05:33:20;6.80;;;3.53;;
38513;SDS011;24282;48.400;10.808;2023-04-15T05:35:47;6.70;;;3.90;;
38513;SDS011;24282;48.400;10.808;2023-04-15T05:38:12;7.23;;;3.90;;
38513;SDS011;24282;48.400;10.808;2023-04-15T05:40:38;7.80;;;3.80;;
38513;SDS011;24282;48.400;10.808;2023-04-15T05:43:04;5.83;;;3.50;;
38513;SDS011;24282;48.400;10.808;2023-04-15T05:45:30;6.53;;;3.50;;
38513;SDS011;24282;48.400;10.808;2023-04-15T05:47:55;4.83;;;3.30;;
38513;SDS011;24282;48.400;10.808;2023-04-15T05:50:21;7.17;;;3.90;;
38513;SDS011;24282;48.400;10.808;2023-04-15T05:52:47;8.13;;;4.07;;
38513;SDS011;24282;48.400;10.808;2023-04-15T05:55:12;8.40;;;3.70;;
38513;SDS011;24282;48.400;10.808;2023-04-15T05:57:38;6.33;;;4.23;;
38513;SDS011;24282;48.400;10.808;2023-04-15T06:00:05;8.23;;;4.33;;
38513;SDS011;24282;48.400;10.808;2023-04-15T06:02:34;8.73;;;4.53;;
38513;SDS011;24282;48.400;10.808;2023-04-15T06:05:00;7.03;;;3.43;;
38513;SDS011;24282;48.400;10.808;2023-04-15T06:07:26;7.23;;;3.20;;
38513;SDS011;24282;48.400;10.808;2023-04-15T06:09:52;5.93;;;3.13;;
38513;SDS011;24282;48.400;10.808;2023-04-15T06:12:18;4.47;;;2.10;;
38513;SDS011;24282;48.400;10.808;2023-04-15T06:14:43;4.97;;;2.50;;
38513;SDS011;24282;48.400;10.808;2023-04-15T06:17:09;5.60;;;2.53;;
38513;SDS011;24282;48.400;10.808;2023-04-15T06:19:35;5.47;;;2.37;;
38513;SDS011;24282;48.400;10.808;2023-04-15T06:22:01;4.63;;;2.63;;
38513;SDS011;24282;48.400;10.808;2023-04-15T06:24:27;5.43;;;2.50;;
38513;SDS011;24282;48.400;10.808;2023-04-15T06:26:53;7.50;;;2.60;;
38513;SDS011;24282;48.400;10.808;2023-04-15T06:29:19;4.23;;;2.27;;
38513;SDS011;24282;48.400;10.808;2023-04-15T06:31:48;5.27;;;2.87;;
38513;SDS011;24282;48.400;10.808;2023-04-15T06:34:14;5.80;;;2.70;;
38513;SDS011;24282;48.400;10.808;2023-04-15T06:36:40;5.97;;;2.60;;
38513;SDS011;24282;48.400;10.808;2023-04-15T06:39:05;5.53;;;2.87;;
38513;SDS011;24282;48.400;10.808;2023-04-15T06:41:31;5.00;;;2.97;;
38513;SDS011;24282;48.400;10.808;2023-04-15T06:43:58;6.67;;;2.90;;
38513;SDS011;24282;48.400;10.808;2023-04-15T06:46:24;5.33;;;2.50;;
38513;SDS011;24282;48.400;10.808;2023-04-15T06:48:50;4.10;;;2.27;;
38513;SDS011;24282;48.400;10.808;2023-04-15T06:51:16;6.17;;;2.40;;
38513;SDS011;24282;48.400;10.808;2023-04-15T06:53:42;5.67;;;2.20;;
38513;SDS011;24282;48.400;10.808;2023-04-15T06:56:08;5.10;;;1.83;;
38513;SDS011;24282;48.400;10.808;2023-04-15T06:58:34;3.60;;;1.83;;
38513;SDS011;24282;48.400;10.808;2023-04-15T07:01:00;4.83;;;2.37;;
38513;SDS011;24282;48.400;10.808;2023-04-15T07:03:26;6.20;;;2.37;;
38513;SDS011;24282;48.400;10.808;2023-04-15T07:05:52;2.93;;;1.93;;
38513;SDS011;24282;48.400;10.808;2023-04-15T07:08:19;6.23;;;2.50;;
38513;SDS011;24282;48.400;10.808;2023-04-15T07:10:47;5.23;;;2.97;;
38513;SDS011;24282;48.400;10.808;2023-04-15T07:13:13;4.63;;;2.77;;
38513;SDS011;24282;48.400;10.808;2023-04-15T07:15:39;3.47;;;1.90;;
38513;SDS011;24282;48.400;10.808;2023-04-15T07:18:04;4.00;;;1.77;;
38513;SDS011;24282;48.400;10.808;2023-04-15T07:20:30;5.33;;;2.00;;
38513;SDS011;24282;48.400;10.808;2023-04-15T07:22:56;3.90;;;2.13;;
38513;SDS011;24282;48.400;10.808;2023-04-15T07:25:22;5.93;;;1.87;;
38513;SDS011;24282;48.400;10.808;2023-04-15T07:27:47;8.13;;;2.20;;
38513;SDS011;24282;48.400;10.808;2023-04-15T07:30:13;4.50;;;1.80;;
38513;SDS011;24282;48.400;10.808;2023-04-15T07:32:40;4.17;;;1.73;;
38513;SDS011;24282;48.400;10.808;2023-04-15T07:35:06;5.80;;;1.93;;
38513;SDS011;24282;48.400;10.808;2023-04-15T07:37:33;3.80;;;1.70;;
38513;SDS011;24282;48.400;10.808;2023-04-15T07:40:00;4.13;;;1.70;;
38513;SDS011;24282;48.400;10.808;2023-04-15T07:42:26;4.87;;;2.00;;
38513;SDS011;24282;48.400;10.808;2023-04-15T07:44:53;3.83;;;2.20;;
38513;SDS011;24282;48.400;10.808;2023-04-15T07:47:19;6.80;;;3.73;;
38513;SDS011;24282;48.400;10.808;2023-04-15T07:49:45;5.60;;;1.87;;
38513;SDS011;24282;48.400;10.808;2023-04-15T07:52:11;3.77;;;1.80;;
38513;SDS011;24282;48.400;10.808;2023-04-15T07:54:37;4.27;;;1.57;;
38513;SDS011;24282;48.400;10.808;2023-04-15T07:57:02;4.67;;;2.10;;
38513;SDS011;24282;48.400;10.808;2023-04-15T07:59:28;5.77;;;1.67;;
38513;SDS011;24282;48.400;10.808;2023-04-15T08:01:55;5.53;;;1.77;;
38513;SDS011;24282;48.400;10.808;2023-04-15T08:04:21;3.90;;;1.80;;
38513;SDS011;24282;48.400;10.808;2023-04-15T08:06:47;4.30;;;2.07;;
38513;SDS011;24282;48.400;10.808;2023-04-15T08:09:14;4.70;;;2.00;;
38513;SDS011;24282;48.400;10.808;2023-04-15T08:11:40;5.57;;;1.87;;
38513;SDS011;24282;48.400;10.808;2023-04-15T08:14:06;5.07;;;2.10;;
38513;SDS011;24282;48.400;10.808;2023-04-15T08:16:32;5.23;;;2.07;;
38513;SDS011;24282;48.400;10.808;2023-04-15T08:18:58;3.27;;;1.50;;
38513;SDS011;24282;48.400;10.808;2023-04-15T08:21:24;4.60;;;1.97;;
38513;SDS011;24282;48.400;10.808;2023-04-15T08:23:50;3.93;;;1.60;;
38513;SDS011;24282;48.400;10.808;2023-04-15T08:26:17;3.63;;;1.83;;
38513;SDS011;24282;48.400;10.808;2023-04-15T08:28:44;4.27;;;2.17;;
38513;SDS011;24282;48.400;10.808;2023-04-15T08:31:11;3.90;;;1.87;;
38513;SDS011;24282;48.400;10.808;2023-04-15T08:33:38;6.00;;;2.03;;
38513;SDS011;24282;48.400;10.808;2023-04-15T08:36:04;4.17;;;1.97;;
38513;SDS011;24282;48.400;10.808;2023-04-15T08:38:30;5.40;;;1.67;;
38513;SDS011;24282;48.400;10.808;2023-04-15T08:40:56;5.23;;;2.03;;
38513;SDS011;24282;48.400;10.808;2023-04-15T08:43:26;3.87;;;1.80;;
38513;SDS011;24282;48.400;10.808;2023-04-15T08:45:54;3.23;;;1.70;;
38513;SDS011;24282;48.400;10.808;2023-04-15T08:48:23;4.77;;;2.03;;
38513;SDS011;24282;48.400;10.808;2023-04-15T08:50:52;4.97;;;1.97;;
38513;SDS011;24282;48.400;10.808;2023-04-15T08:53:18;4.43;;;1.83;;
38513;SDS011;24282;48.400;10.808;2023-04-15T08:55:45;4.67;;;2.03;;
38513;SDS011;24282;48.400;10.808;2023-04-15T08:58:13;4.67;;;1.87;;
38513;SDS011;24282;48.400;10.808;2023-04-15T09:00:40;6.70;;;2.57;;
38513;SDS011;24282;48.400;10.808;2023-04-15T09:03:06;4.73;;;2.40;;
38513;SDS011;24282;48.400;10.808;2023-04-15T09:05:32;4.53;;;2.17;;
38513;SDS011;24282;48.400;10.808;2023-04-15T09:07:59;2.27;;;1.57;;
38513;SDS011;24282;48.400;10.808;2023-04-15T09:10:26;2.73;;;1.97;;
38513;SDS011;24282;48.400;10.808;2023-04-15T09:12:53;8.50;;;3.43;;
38513;SDS011;24282;48.400;10.808;2023-04-15T09:15:19;5.03;;;1.97;;
38513;SDS011;24282;48.400;10.808;2023-04-15T09:17:45;8.03;;;2.50;;
38513;SDS011;24282;48.400;10.808;2023-04-15T09:20:12;4.13;;;1.93;;
38513;SDS011;24282;48.400;10.808;2023-04-15T09:22:40;3.30;;;1.90;;
38513;SDS011;24282;48.400;10.808;2023-04-15T09:30:15;3.67;;;2.00;;
38513;SDS011;24282;48.400;10.808;2023-04-15T09:32:50;5.00;;;2.30;;
38513;SDS011;24282;48.400;10.808;2023-04-15T09:35:23;3.93;;;1.90;;
38513;SDS011;24282;48.400;10.808;2023-04-15T09:37:50;4.47;;;2.10;;
38513;SDS011;24282;48.400;10.808;2023-04-15T09:40:36;4.53;;;2.00;;
38513;SDS011;24282;48.400;10.808;2023-04-15T09:43:03;4.97;;;1.90;;
38513;SDS011;24282;48.400;10.808;2023-04-15T09:45:30;4.43;;;1.90;;
38513;SDS011;24282;48.400;10.808;2023-04-15T09:48:19;3.47;;;2.20;;
38513;SDS011;24282;48.400;10.808;2023-04-15T09:50:52;4.20;;;2.30;;
38513;SDS011;24282;48.400;10.808;2023-04-15T09:53:22;3.97;;;2.40;;
38513;SDS011;24282;48.400;10.808;2023-04-15T09:55:55;4.90;;;2.70;;
38513;SDS011;24282;48.400;10.808;2023-04-15T09:58:26;7.30;;;2.30;;
38513;SDS011;24282;48.400;10.808;2023-04-15T10:00:54;4.67;;;2.80;;
38513;SDS011;24282;48.400;10.808;2023-04-15T10:03:25;4.80;;;2.63;;
38513;SDS011;24282;48.400;10.808;2023-04-15T10:05:57;5.70;;;2.17;;
38513;SDS011;24282;48.400;10.808;2023-04-15T10:08:25;4.33;;;2.57;;
38513;SDS011;24282;48.400;10.808;2023-04-15T10:10:53;5.47;;;2.97;;
38513;SDS011;24282;48.400;10.808;2023-04-15T10:13:21;5.57;;;2.93;;
38513;SDS011;24282;48.400;10.808;2023-04-15T10:15:55;6.20;;;3.10;;
38513;SDS011;24282;48.400;10.808;2023-04-15T10:18:24;4.37;;;2.40;;
38513;SDS011;24282;48.400;10.808;2023-04-15T10:20:51;5.33;;;2.77;;
38513;SDS011;24282;48.400;10.808;2023-04-15T10:23:18;6.43;;;3.13;;
38513;SDS011;24282;48.400;10.808;2023-04-15T10:25:46;5.87;;;2.87;;
38513;SDS011;24282;48.400;10.808;2023-04-15T10:28:15;4.63;;;2.40;;
38513;SDS011;24282;48.400;10.808;2023-04-15T10:30:41;6.80;;;3.30;;
38513;SDS011;24282;48.400;10.808;2023-04-15T10:33:08;4.93;;;2.70;;
38513;SDS011;24282;48.400;10.808;2023-04-15T10:35:35;5.13;;;2.70;;
38513;SDS011;24282;48.400;10.808;2023-04-15T10:38:01;4.97;;;2.80;;
38513;SDS011;24282;48.400;10.808;2023-04-15T10:40:40;6.03;;;3.27;;
38513;SDS011;24282;48.400;10.808;2023-04-15T10:43:06;7.13;;;2.70;;
38513;SDS011;24282;48.400;10.808;2023-04-15T10:45:32;7.73;;;3.20;;
38513;SDS011;24282;48.400;10.808;2023-04-15T10:48:01;6.07;;;3.30;;
38513;SDS011;24282;48.400;10.808;2023-04-15T10:50:32;4.53;;;2.50;;
38513;SDS011;24282;48.400;10.808;2023-04-15T10:52:58;4.20;;;2.40;;
38513;SDS011;24282;48.400;10.808;2023-04-15T10:55:30;7.07;;;3.23;;
38513;SDS011;24282;48.400;10.808;2023-04-15T10:57:58;5.17;;;2.63;;
38513;SDS011;24282;48.400;10.808;2023-04-15T11:00:27;4.10;;;2.30;;
38513;SDS011;24282;48.400;10.808;2023-04-15T11:02:55;4.10;;;1.80;;
38513;SDS011;24282;48.400;10.808;2023-04-15T11:05:47;3.57;;;1.30;;
38513;SDS011;24282;48.400;10.808;2023-04-15T11:08:13;2.60;;;1.30;;
38513;SDS011;24282;48.400;10.808;2023-04-15T11:13:16;2.07;;;0.80;;
38513;SDS011;24282;48.400;10.808;2023-04-15T11:15:46;1.43;;;0.80;;
38513;SDS011;24282;48.400;10.808;2023-04-15T11:18:19;2.97;;;1.33;;
38513;SDS011;24282;48.400;10.808;2023-04-15T11:20:53;4.10;;;1.13;;
38513;SDS011;24282;48.400;10.808;2023-04-15T11:23:28;2.40;;;0.97;;
38513;SDS011;24282;48.400;10.808;2023-04-15T11:26:08;2.87;;;1.30;;
38513;SDS011;24282;48.400;10.808;2023-04-15T11:28:37;4.27;;;1.60;;
38513;SDS011;24282;48.400;10.808;2023-04-15T11:31:14;3.27;;;1.13;;
38513;SDS011;24282;48.400;10.808;2023-04-15T11:34:19;5.97;;;1.10;;
38513;SDS011;24282;48.400;10.808;2023-04-15T11:36:33;4.10;;;0.90;;
38513;SDS011;24282;48.400;10.808;2023-04-15T11:38:59;2.00;;;0.70;;
38513;SDS011;24282;48.400;10.808;2023-04-15T11:41:25;3.53;;;1.00;;
38513;SDS011;24282;48.400;10.808;2023-04-15T11:43:51;2.93;;;0.93;;
38513;SDS011;24282;48.400;10.808;2023-04-15T11:46:17;2.60;;;1.10;;
38513;SDS011;24282;48.400;10.808;2023-04-15T11:48:44;2.60;;;1.20;;
38513;SDS011;24282;48.400;10.808;2023-04-15T11:51:11;1.77;;;1.03;;
38513;SDS011;24282;48.400;10.808;2023-04-15T11:53:45;3.97;;;1.07;;
38513;SDS011;24282;48.400;10.808;2023-04-15T11:58:45;3.47;;;1.65;;
38513;SDS011;24282;48.400;10.808;2023-04-15T12:01:11;4.60;;;1.90;;
38513;SDS011;24282;48.400;10.808;2023-04-15T12:03:41;2.80;;;1.40;;
38513;SDS011;24282;48.400;10.808;2023-04-15T12:06:16;2.50;;;1.50;;
38513;SDS011;24282;48.400;10.808;2023-04-15T12:14:26;2.77;;;1.13;;
38513;SDS011;24282;48.400;10.808;2023-04-15T12:19:40;3.60;;;1.60;;
38513;SDS011;24282;48.400;10.808;2023-04-15T12:22:11;3.17;;;1.58;;
38513;SDS011;24282;48.400;10.808;2023-04-15T12:24:38;3.27;;;1.53;;
38513;SDS011;24282;48.400;10.808;2023-04-15T12:27:09;3.27;;;1.97;;
38513;SDS011;24282;48.400;10.808;2023-04-15T12:29:36;5.27;;;1.93;;
38513;SDS011;24282;48.400;10.808;2023-04-15T12:34:34;6.20;;;2.63;;
38513;SDS011;24282;48.400;10.808;2023-04-15T12:37:01;5.10;;;2.73;;
38513;SDS011;24282;48.400;10.808;2023-04-15T12:39:29;4.00;;;1.70;;
38513;SDS011;24282;48.400;10.808;2023-04-15T12:41:57;3.10;;;1.67;;
38513;SDS011;24282;48.400;10.808;2023-04-15T12:44:24;3.50;;;1.77;;
38513;SDS011;24282;48.400;10.808;2023-04-15T12:46:50;3.57;;;2.13;;
38513;SDS011;24282;48.400;10.808;2023-04-15T12:49:20;4.60;;;2.13;;
38513;SDS011;24282;48.400;10.808;2023-04-15T12:51:49;4.37;;;1.83;;
38513;SDS011;24282;48.400;10.808;2023-04-15T12:54:18;2.70;;;1.73;;
38513;SDS011;24282;48.400;10.808;2023-04-15T12:56:45;3.37;;;1.60;;
38513;SDS011;24282;48.400;10.808;2023-04-15T12:59:12;4.07;;;1.23;;
38513;SDS011;24282;48.400;10.808;2023-04-15T13:01:38;3.37;;;1.37;;
38513;SDS011;24282;48.400;10.808;2023-04-15T13:04:04;4.47;;;1.47;;
38513;SDS011;24282;48.400;10.808;2023-04-15T13:06:30;2.80;;;1.33;;
38513;SDS011;24282;48.400;10.808;2023-04-15T13:08:59;2.43;;;1.10;;
38513;SDS011;24282;48.400;10.808;2023-04-15T13:11:26;2.20;;;1.03;;
38513;SDS011;24282;48.400;10.808;2023-04-15T13:13:55;1.53;;;0.73;;
38513;SDS011;24282;48.400;10.808;2023-04-15T13:16:21;2.93;;;1.10;;
38513;SDS011;24282;48.400;10.808;2023-04-15T13:18:47;2.23;;;1.00;;
38513;SDS011;24282;48.400;10.808;2023-04-15T13:21:13;1.33;;;0.87;;
38513;SDS011;24282;48.400;10.808;2023-04-15T13:23:42;4.17;;;1.20;;
38513;SDS011;24282;48.400;10.808;2023-04-15T13:26:08;2.30;;;1.00;;
38513;SDS011;24282;48.400;10.808;2023-04-15T13:28:33;3.30;;;1.10;;
38513;SDS011;24282;48.400;10.808;2023-04-15T13:30:59;4.93;;;1.43;;
38513;SDS011;24282;48.400;10.808;2023-04-15T13:33:25;3.23;;;1.30;;
38513;SDS011;24282;48.400;10.808;2023-04-15T13:35:51;2.97;;;1.10;;
38513;SDS011;24282;48.400;10.808;2023-04-15T13:38:17;4.67;;;1.67;;
38513;SDS011;24282;48.400;10.808;2023-04-15T13:40:43;4.57;;;2.00;;
38513;SDS011;24282;48.400;10.808;2023-04-15T13:43:09;5.40;;;2.87;;
38513;SDS011;24282;48.400;10.808;2023-04-15T13:45:35;6.47;;;3.87;;
38513;SDS011;24282;48.400;10.808;2023-04-15T13:48:01;4.73;;;2.60;;
38513;SDS011;24282;48.400;10.808;2023-04-15T13:50:27;4.83;;;2.60;;
38513;SDS011;24282;48.400;10.808;2023-04-15T13:52:53;3.07;;;1.43;;
38513;SDS011;24282;48.400;10.808;2023-04-15T13:55:19;3.47;;;1.40;;
38513;SDS011;24282;48.400;10.808;2023-04-15T13:57:45;2.67;;;1.50;;
38513;SDS011;24282;48.400;10.808;2023-04-15T14:00:11;3.73;;;2.10;;
38513;SDS011;24282;48.400;10.808;2023-04-15T14:02:38;4.23;;;1.73;;
38513;SDS011;24282;48.400;10.808;2023-04-15T14:05:04;5.43;;;1.90;;
38513;SDS011;24282;48.400;10.808;2023-04-15T14:07:30;3.77;;;1.60;;
38513;SDS011;24282;48.400;10.808;2023-04-15T14:09:56;3.57;;;1.73;;
38513;SDS011;24282;48.400;10.808;2023-04-15T14:12:22;3.27;;;1.47;;
38513;SDS011;24282;48.400;10.808;2023-04-15T14:14:50;2.53;;;1.60;;
38513;SDS011;24282;48.400;10.808;2023-04-15T14:17:16;4.63;;;1.90;;
38513;SDS011;24282;48.400;10.808;2023-04-15T14:19:42;2.40;;;1.50;;
38513;SDS011;24282;48.400;10.808;2023-04-15T14:22:07;4.37;;;2.00;;
38513;SDS011;24282;48.400;10.808;2023-04-15T14:24:33;4.87;;;1.60;;
38513;SDS011;24282;48.400;10.808;2023-04-15T14:26:59;3.13;;;1.60;;
38513;SDS011;24282;48.400;10.808;2023-04-15T14:29:26;3.83;;;2.00;;
38513;SDS011;24282;48.400;10.808;2023-04-15T14:31:52;3.43;;;1.50;;
38513;SDS011;24282;48.400;10.808;2023-04-15T14:34:18;4.27;;;1.93;;
38513;SDS011;24282;48.400;10.808;2023-04-15T14:36:46;5.30;;;2.47;;
38513;SDS011;24282;48.400;10.808;2023-04-15T14:39:12;4.53;;;2.30;;
38513;SDS011;24282;48.400;10.808;2023-04-15T14:41:38;3.53;;;2.20;;
38513;SDS011;24282;48.400;10.808;2023-04-15T14:44:03;4.63;;;1.87;;
38513;SDS011;24282;48.400;10.808;2023-04-15T14:46:29;3.63;;;1.97;;
38513;SDS011;24282;48.400;10.808;2023-04-15T14:48:55;1.40;;;0.93;;
38513;SDS011;24282;48.400;10.808;2023-04-15T14:51:21;2.27;;;1.20;;
38513;SDS011;24282;48.400;10.808;2023-04-15T14:53:47;2.90;;;1.60;;